Time;durP1;ratioP1;P1;durP2;ratioP2;P2;SDS_P1;SDS_P2;PMS_P1;PMS_P2;Temp;Humidity;BMP_temperature;BMP_pressure;BME280_temperature;BME280_humidity;BME280_pressure;Samples;Min_cycle;Max_cycle;Signal;HPM_P1;HPM_P2
2022/02/15 00:01:13;;;;;;;15.90;2.90;;;30.30;12.80;;;;;;5031046;28;20076;-62
2022/02/15 00:03:39;;;;;;;12.52;2.67;;;30.20;12.80;;;;;;5029784;28;20088;-62
2022/02/15 00:06:06;;;;;;;26.73;2.88;;;30.20;13.10;;;;;;5029448;28;20092;-62
2022/02/15 00:08:32;;;;;;;21.52;2.72;;;30.00;13.30;;;;;;5029763;28;20065;-62
2022/02/15 00:10:58;;;;;;;13.88;2.45;;;30.00;13.50;;;;;;5013479;28;20092;-60
2022/02/15 00:13:25;;;;;;;23.40;2.50;;;29.90;13.40;;;;;;5025680;28;20143;-61
2022/02/15 00:15:51;;;;;;;19.73;2.97;;;29.80;13.70;;;;;;5028165;28;20581;-64
2022/02/15 00:18:18;;;;;;;17.92;3.15;;;29.70;13.40;;;;;;5029191;28;20097;-62
2022/02/15 00:20:44;;;;;;;23.05;3.78;;;29.50;13.40;;;;;;5030787;28;20561;-62
2022/02/15 00:23:11;;;;;;;32.33;3.83;;;29.40;13.80;;;;;;5029670;28;20109;-60
2022/02/15 00:25:37;;;;;;;23.20;3.00;;;29.30;14.20;;;;;;5029478;28;20100;-62
2022/02/15 00:28:04;;;;;;;16.35;2.90;;;29.30;14.40;;;;;;5030997;28;20149;-63
2022/02/15 00:30:31;;;;;;;17.85;3.72;;;29.10;14.80;;;;;;5028835;28;20163;-62
2022/02/15 00:32:57;;;;;;;19.90;3.10;;;28.90;15.00;;;;;;5029098;28;20130;-63
2022/02/15 00:35:23;;;;;;;10.25;2.75;;;28.80;15.10;;;;;;5029265;28;20080;-61
2022/02/15 00:37:50;;;;;;;21.42;3.47;;;28.70;15.40;;;;;;5028610;28;20142;-62
2022/02/15 00:40:17;;;;;;;19.70;3.20;;;28.70;15.70;;;;;;5030499;28;20065;-64
2022/02/15 00:42:43;;;;;;;19.13;3.15;;;28.50;15.80;;;;;;5028970;28;20616;-61
2022/02/15 00:45:10;;;;;;;17.52;3.70;;;28.50;16.00;;;;;;5015587;28;20072;-61
2022/02/15 00:47:36;;;;;;;18.10;4.78;;;28.40;16.30;;;;;;5012646;28;20085;-62
2022/02/15 00:50:04;;;;;;;21.08;4.53;;;28.30;16.50;;;;;;5013372;28;20072;-61
2022/02/15 00:52:30;;;;;;;33.50;4.68;;;28.20;16.80;;;;;;5029203;28;20573;-62
2022/02/15 00:54:57;;;;;;;25.60;4.65;;;28.10;16.90;;;;;;5029066;28;20522;-62
2022/02/15 00:57:24;;;;;;;29.20;3.75;;;28.00;17.00;;;;;;5028418;28;20177;-61
2022/02/15 00:59:51;;;;;;;37.17;3.97;;;27.90;17.10;;;;;;5028500;28;20085;-61
2022/02/15 01:02:18;;;;;;;32.95;5.00;;;27.80;17.10;;;;;;5028328;28;20069;-61
2022/02/15 01:04:45;;;;;;;25.90;4.70;;;27.60;17.40;;;;;;5029009;28;20167;-60
2022/02/15 01:07:11;;;;;;;30.83;4.47;;;27.50;17.10;;;;;;5027804;28;20089;-61
2022/02/15 01:09:37;;;;;;;27.38;4.43;;;27.30;17.20;;;;;;5029804;28;20065;-61
2022/02/15 01:12:04;;;;;;;30.77;4.45;;;27.20;17.20;;;;;;5028836;28;20745;-61
2022/02/15 01:14:31;;;;;;;31.45;4.93;;;27.10;17.20;;;;;;5012109;28;20085;-63
2022/02/15 01:16:57;;;;;;;23.40;5.07;;;26.90;17.20;;;;;;5028701;28;20124;-60
2022/02/15 01:19:24;;;;;;;39.38;5.78;;;26.80;17.30;;;;;;5028771;28;20104;-61
2022/02/15 01:21:50;;;;;;;40.60;6.03;;;26.70;17.50;;;;;;5029044;28;20080;-61
2022/02/15 01:24:17;;;;;;;33.55;4.30;;;26.60;17.50;;;;;;5028600;28;20159;-61
2022/02/15 01:26:43;;;;;;;31.13;4.50;;;26.40;17.20;;;;;;5029612;28;20455;-60
2022/02/15 01:29:09;;;;;;;23.25;4.38;;;26.20;17.00;;;;;;5027858;28;20171;-61
2022/02/15 01:31:36;;;;;;;33.88;4.40;;;26.10;17.20;;;;;;5028354;28;20165;-61
2022/02/15 01:34:02;;;;;;;31.55;4.05;;;25.90;17.40;;;;;;5028041;28;20104;-60
2022/02/15 01:36:28;;;;;;;32.10;4.22;;;25.70;17.50;;;;;;5011808;28;20172;-61
2022/02/15 01:38:55;;;;;;;34.03;5.30;;;25.60;17.60;;;;;;5028060;28;20081;-62
2022/02/15 01:41:21;;;;;;;41.05;5.70;;;25.50;17.80;;;;;;5021415;28;20145;-61
2022/02/15 01:43:48;;;;;;;44.47;5.97;;;25.30;17.90;;;;;;5027781;28;20125;-61
2022/02/15 01:46:15;;;;;;;31.02;5.78;;;25.20;18.10;;;;;;5027882;28;20066;-61
2022/02/15 01:48:43;;;;;;;37.83;5.72;;;25.00;18.10;;;;;;5011909;28;20072;-62
2022/02/15 01:51:10;;;;;;;28.55;6.38;;;24.80;17.70;;;;;;5010987;28;20069;-60
2022/02/15 01:53:36;;;;;;;57.03;15.57;;;24.70;18.80;;;;;;5027035;28;20097;-61
2022/02/15 01:56:05;;;;;;;103.30;51.88;;;24.60;18.30;;;;;;5029274;28;20589;-59
2022/02/15 01:58:32;;;;;;;73.18;24.67;;;24.40;18.40;;;;;;5028204;28;20489;-60
2022/02/15 02:00:59;;;;;;;53.85;14.23;;;24.50;34.10;;;;;;5027972;28;20110;-58
2022/02/15 02:03:25;;;;;;;62.78;9.02;;;24.10;19.00;;;;;;5029069;28;20172;-64
2022/02/15 02:05:52;;;;;;;49.10;7.70;;;24.00;19.30;;;;;;5027772;28;20094;-61
2022/02/15 02:08:25;;;;;;;66.72;8.23;;;23.90;19.40;;;;;;5027860;28;20431;-60
2022/02/15 02:10:52;;;;;;;52.95;7.82;;;23.70;19.50;;;;;;5011775;28;20082;-61
2022/02/15 02:13:18;;;;;;;63.50;8.57;;;23.60;19.90;;;;;;5024158;28;20097;-60
2022/02/15 02:15:46;;;;;;;55.17;8.05;;;23.40;20.40;;;;;;5004842;28;20069;-61
2022/02/15 02:18:14;;;;;;;57.78;8.35;;;23.00;35.80;;;;;;5028068;28;20093;-62
2022/02/15 02:20:41;;;;;;;53.13;8.15;;;23.20;21.30;;;;;;5021911;28;20100;-60
2022/02/15 02:23:16;;;;;;;63.42;7.40;;;23.10;21.40;;;;;;5033855;28;20093;-61
2022/02/15 02:25:44;;;;;;;70.28;8.55;;;23.00;21.60;;;;;;5031375;28;20175;-56
2022/02/15 02:28:10;;;;;;;75.30;9.13;;;22.70;21.80;;;;;;5030586;28;20081;-60
2022/02/15 02:30:38;;;;;;;52.58;9.45;;;22.60;22.10;;;;;;5031077;28;20846;-61
2022/02/15 02:33:04;;;;;;;83.13;10.60;;;22.50;22.20;;;;;;5029499;28;20144;-61
2022/02/15 02:35:31;;;;;;;53.90;9.18;;;22.40;22.60;;;;;;5014796;28;20078;-60
2022/02/15 02:37:58;;;;;;;69.50;9.43;;;22.30;22.80;;;;;;5014380;28;20089;-64
2022/02/15 02:40:24;;;;;;;83.15;9.85;;;22.20;23.00;;;;;;5032853;28;20561;-62
2022/02/15 02:42:51;;;;;;;85.28;10.18;;;22.10;23.10;;;;;;5032138;28;20090;-61
2022/02/15 02:45:19;;;;;;;93.85;10.63;;;22.00;23.20;;;;;;5028754;28;20166;-62
2022/02/15 02:47:48;;;;;;;77.68;9.70;;;21.90;23.60;;;;;;5031113;28;20156;-63
2022/02/15 02:50:17;;;;;;;61.50;8.80;;;21.90;23.80;;;;;;5030761;28;20169;-62
2022/02/15 02:52:44;;;;;;;81.97;11.45;;;21.80;23.80;;;;;;5015819;28;20086;-61
2022/02/15 02:55:11;;;;;;;88.25;10.27;;;21.60;24.00;;;;;;5013411;28;20148;-60
2022/02/15 02:57:38;;;;;;;86.20;10.63;;;21.60;24.30;;;;;;5031572;28;20088;-58
2022/02/15 03:00:07;;;;;;;80.43;9.85;;;21.50;24.60;;;;;;4996313;28;20074;-61
2022/02/15 03:02:34;;;;;;;113.43;12.38;;;21.40;24.70;;;;;;5001314;28;20172;-61
2022/02/15 03:05:00;;;;;;;96.43;10.82;;;21.60;52.40;;;;;;5032084;28;20136;-60
2022/02/15 03:07:27;;;;;;;162.82;15.07;;;;;;;;;;5031645;28;20041;-62
2022/02/15 03:09:53;;;;;;;141.60;16.38;;;21.30;50.20;;;;;;5030516;28;20434;-60
2022/02/15 03:12:20;;;;;;;138.30;14.05;;;21.10;25.70;;;;;;5031690;28;20088;-59
2022/02/15 03:14:47;;;;;;;226.57;20.95;;;21.10;50.30;;;;;;5029067;28;20080;-61
2022/02/15 03:17:16;;;;;;;128.00;14.73;;;20.90;26.40;;;;;;5031138;28;20060;-59
2022/02/15 03:19:42;;;;;;;140.23;15.95;;;20.90;26.80;;;;;;5029634;28;20113;-61
2022/02/15 03:22:09;;;;;;;111.68;13.75;;;20.80;27.20;;;;;;5014784;28;20123;-60
2022/02/15 03:24:37;;;;;;;136.20;15.88;;;20.60;26.90;;;;;;5031472;28;21563;-61
2022/02/15 03:27:04;;;;;;;135.80;14.77;;;20.70;48.40;;;;;;5031729;28;20061;-61
2022/02/15 03:29:30;;;;;;;123.43;14.68;;;;;;;;;;5031596;28;20198;-62
2022/02/15 03:31:57;;;;;;;105.97;16.98;;;20.70;44.30;;;;;;5029514;28;20077;-62
2022/02/15 03:34:23;;;;;;;120.32;17.05;;;20.40;27.30;;;;;;5030587;28;20183;-63
2022/02/15 03:36:50;;;;;;;158.88;23.92;;;20.30;40.80;;;;;;5030059;28;20079;-61
2022/02/15 03:39:16;;;;;;;128.30;14.18;;;20.80;40.00;;;;;;5029788;28;20076;-61
2022/02/15 03:44:27;;;;;;;81.97;14.93;;;;;;;;;;5031209;28;20148;-59
2022/02/15 03:46:53;;;;;;;97.78;14.95;;;20.40;25.10;;;;;;5029211;28;20141;-64
2022/02/15 03:49:20;;;;;;;78.57;11.45;;;20.50;25.20;;;;;;5010709;28;20598;-62
2022/02/15 03:51:47;;;;;;;60.33;10.50;;;20.60;25.00;;;;;;5030153;28;20078;-60
2022/02/15 03:54:14;;;;;;;98.45;14.90;;;20.60;24.60;;;;;;5031341;28;20158;-63
2022/02/15 03:56:40;;;;;;;102.68;17.42;;;20.70;23.70;;;;;;5030038;28;20078;-61
2022/02/15 03:59:06;;;;;;;95.13;14.50;;;20.80;23.80;;;;;;5030559;28;20093;-58
2022/02/15 04:01:34;;;;;;;91.40;16.90;;;20.90;41.60;;;;;;5013140;28;20525;-63
2022/02/15 04:04:00;;;;;;;93.28;17.27;;;20.80;24.10;;;;;;5029370;28;20511;-61
2022/02/15 04:06:27;;;;;;;97.53;24.25;;;20.80;24.30;;;;;;4996252;28;20258;-61
2022/02/15 04:08:53;;;;;;;82.80;18.00;;;20.70;24.10;;;;;;5029258;28;20085;-63
2022/02/15 04:11:20;;;;;;;68.68;11.85;;;20.70;24.20;;;;;;5030938;28;20120;-62
2022/02/15 04:13:46;;;;;;;62.92;10.60;;;20.60;24.20;;;;;;5022212;28;20089;-61
2022/02/15 04:16:13;;;;;;;88.97;12.18;;;20.60;24.50;;;;;;5027988;28;20124;-64
2022/02/15 04:18:43;;;;;;;80.43;12.10;;;20.50;24.60;;;;;;5024945;28;20829;-59
2022/02/15 04:21:14;;;;;;;69.55;12.88;;;20.50;24.80;;;;;;5013497;28;20520;-62
2022/02/15 04:23:44;;;;;;;74.88;15.77;;;20.40;25.00;;;;;;5031447;28;20133;-62
2022/02/15 04:26:10;;;;;;;81.07;22.45;;;20.30;25.00;;;;;;5028149;28;20159;-62
2022/02/15 04:28:36;;;;;;;77.80;17.35;;;20.20;25.10;;;;;;5029731;28;20078;-61
2022/02/15 04:31:03;;;;;;;68.25;14.88;;;20.10;25.10;;;;;;5027379;28;20074;-61
2022/02/15 04:33:29;;;;;;;;;;;20.00;25.50;;;;;;5029390;28;20111;-61
2022/02/15 04:35:55;;;;;;;72.68;18.50;;;19.90;25.50;;;;;;5029701;28;19996;-61
2022/02/15 04:38:22;;;;;;;68.50;17.92;;;19.90;25.70;;;;;;5011788;28;20574;-61
2022/02/15 04:40:48;;;;;;;88.00;20.17;;;19.80;25.80;;;;;;5028630;28;20172;-63
2022/02/15 04:43:14;;;;;;;95.35;27.17;;;19.80;26.00;;;;;;5028887;28;20090;-62
2022/02/15 04:45:41;;;;;;;95.55;30.27;;;19.80;25.80;;;;;;5028743;28;20074;-60
2022/02/15 04:48:07;;;;;;;134.63;32.35;;;19.70;26.00;;;;;;5028588;28;20070;-59
2022/02/15 04:50:34;;;;;;;122.50;29.40;;;19.70;26.00;;;;;;5029392;28;20073;-61
2022/02/15 04:52:59;;;;;;;;;;;19.60;26.70;;;;;;5030197;28;20128;-62
2022/02/15 04:55:26;;;;;;;123.15;30.20;;;19.60;26.50;;;;;;5028769;28;19961;-61
2022/02/15 04:57:52;;;;;;;;;;;19.40;26.80;;;;;;5030023;28;20156;-63
2022/02/15 05:00:18;;;;;;;120.50;27.38;;;19.40;27.00;;;;;;5030029;28;20663;-63
2022/02/15 05:02:45;;;;;;;90.65;25.10;;;19.30;26.80;;;;;;5028039;28;20097;-62
2022/02/15 05:05:11;;;;;;;;;;;19.20;27.00;;;;;;5030485;28;20077;-62
2022/02/15 05:07:37;;;;;;;116.18;36.45;;;19.10;27.60;;;;;;5029624;28;20042;-61
2022/02/15 05:10:04;;;;;;;;;;;19.00;27.90;;;;;;5029488;28;20558;-62
2022/02/15 05:12:32;;;;;;;127.90;38.27;;;19.00;27.80;;;;;;5028312;28;20420;-60
2022/02/15 05:14:58;;;;;;;129.02;35.83;;;18.90;27.70;;;;;;5024668;28;20078;-62
2022/02/15 05:17:27;;;;;;;119.32;35.40;;;18.90;27.50;;;;;;5028200;28;20439;-62
2022/02/15 05:19:54;;;;;;;115.88;35.55;;;18.80;27.40;;;;;;5028892;28;20117;-61
2022/02/15 05:22:20;;;;;;;104.97;29.63;;;18.70;27.40;;;;;;5024263;28;20093;-63
2022/02/15 05:24:46;;;;;;;;;;;18.70;27.30;;;;;;5030603;28;20089;-61
2022/02/15 05:27:13;;;;;;;76.80;21.58;;;18.70;27.20;;;;;;5028229;28;20012;-61
2022/02/15 05:29:39;;;;;;;74.10;17.33;;;18.70;27.20;;;;;;5027941;28;20514;-62
2022/02/15 05:32:06;;;;;;;60.03;10.88;;;18.80;26.30;;;;;;5028196;28;20065;-62
2022/02/15 05:34:32;;;;;;;44.40;9.63;;;18.90;24.90;;;;;;5029647;28;20093;-62
2022/02/15 05:36:59;;;;;;;29.30;6.72;;;19.00;24.80;;;;;;5027550;28;20081;-61
2022/02/15 05:39:25;;;;;;;33.20;6.47;;;19.00;24.00;;;;;;5028006;28;20160;-59
2022/02/15 05:41:51;;;;;;;31.13;6.88;;;19.30;23.40;;;;;;5027728;28;20086;-61
2022/02/15 05:44:18;;;;;;;35.53;6.90;;;19.30;23.30;;;;;;5027850;28;20124;-61
2022/02/15 05:46:44;;;;;;;;;;;19.50;22.80;;;;;;5029541;28;20085;-61
2022/02/15 05:49:10;;;;;;;36.72;7.65;;;19.50;23.00;;;;;;5028184;28;20004;-62
2022/02/15 05:51:37;;;;;;;36.40;6.32;;;19.50;23.10;;;;;;5027864;28;20082;-62
2022/02/15 05:54:03;;;;;;;33.15;6.40;;;19.50;23.00;;;;;;5020276;28;20161;-61
2022/02/15 05:56:31;;;;;;;36.63;6.60;;;19.60;22.90;;;;;;5027479;28;20078;-63
2022/02/15 05:58:58;;;;;;;37.58;5.95;;;19.70;22.80;;;;;;5028913;28;20082;-62
2022/02/15 06:01:24;;;;;;;31.70;5.95;;;19.70;22.70;;;;;;5027603;28;20082;-62
2022/02/15 06:06:41;;;;;;;31.50;5.85;;;19.60;23.10;;;;;;5028116;28;20089;-60
2022/02/15 06:09:08;;;;;;;36.58;6.05;;;19.60;23.40;;;;;;5026830;28;20136;-61
2022/02/15 06:11:35;;;;;;;33.67;6.40;;;19.50;23.80;;;;;;5027274;28;20066;-61
2022/02/15 06:14:02;;;;;;;40.20;7.57;;;19.50;23.40;;;;;;5018852;28;20160;-61
2022/02/15 06:16:28;;;;;;;31.27;6.45;;;19.50;23.30;;;;;;5019605;28;20074;-62
2022/02/15 06:19:00;;;;;;;;;;;19.60;23.40;;;;;;4992251;28;20110;-61
2022/02/15 06:21:26;;;;;;;46.70;7.47;;;19.60;23.40;;;;;;5027963;28;19968;-62
2022/02/15 06:23:53;;;;;;;50.05;8.00;;;19.50;24.10;;;;;;5029559;28;20086;-62
2022/02/15 06:26:19;;;;;;;47.05;8.00;;;19.60;23.80;;;;;;5027621;28;20208;-61
2022/02/15 06:28:46;;;;;;;51.55;8.35;;;19.60;24.00;;;;;;5011441;28;20070;-61
2022/02/15 06:31:12;;;;;;;37.80;8.15;;;19.50;23.80;;;;;;5011039;28;20544;-61
2022/02/15 06:33:39;;;;;;;48.53;8.55;;;19.50;24.30;;;;;;5010690;28;20184;-62
2022/02/15 06:36:06;;;;;;;42.15;8.48;;;19.50;24.20;;;;;;5020777;28;20088;-62
2022/02/15 06:38:32;;;;;;;56.35;9.30;;;19.40;24.30;;;;;;5028059;28;20464;-62
2022/02/15 06:40:59;;;;;;;52.47;7.93;;;19.40;24.70;;;;;;5027115;28;20078;-61
2022/02/15 06:43:25;;;;;;;45.63;9.65;;;19.40;25.10;;;;;;5027134;28;20102;-61
2022/02/15 06:45:51;;;;;;;51.35;8.85;;;19.30;25.10;;;;;;5027008;28;20157;-61
2022/02/15 06:48:18;;;;;;;;;;;19.20;26.10;;;;;;5026419;28;20076;-61
2022/02/15 06:50:44;;;;;;;57.72;8.45;;;19.10;26.10;;;;;;5027352;28;19962;-64
2022/02/15 06:53:11;;;;;;;39.15;7.90;;;19.00;26.50;;;;;;5026786;28;20131;-61
2022/02/15 06:55:37;;;;;;;51.45;8.52;;;18.90;26.60;;;;;;5027609;28;20127;-62
2022/02/15 06:58:03;;;;;;;42.97;8.40;;;18.80;26.80;;;;;;5028239;28;20097;-62
2022/02/15 07:00:30;;;;;;;47.47;8.23;;;18.70;27.00;;;;;;5026824;28;20074;-62
2022/02/15 07:02:56;;;;;;;;;;;18.60;27.80;;;;;;5027310;28;20588;-62
2022/02/15 07:05:22;;;;;;;36.10;7.60;;;18.50;27.90;;;;;;5028423;28;19965;-62
2022/02/15 07:07:49;;;;;;;35.50;8.30;;;18.40;28.30;;;;;;5032037;28;20224;-62
2022/02/15 07:10:15;;;;;;;45.50;8.43;;;18.30;28.40;;;;;;5030685;28;20074;-61
2022/02/15 07:12:42;;;;;;;39.15;8.63;;;18.30;28.70;;;;;;5031351;28;20094;-63
2022/02/15 07:15:09;;;;;;;37.40;8.43;;;18.20;28.50;;;;;;5028522;28;20447;-59
2022/02/15 07:17:40;;;;;;;44.90;9.27;;;18.10;28.80;;;;;;5029952;28;20096;-61
2022/02/15 07:20:07;;;;;;;39.53;8.27;;;18.00;28.60;;;;;;5030754;28;20113;-61
2022/02/15 07:22:34;;;;;;;38.25;8.60;;;18.00;28.90;;;;;;5030328;28;20074;-64
2022/02/15 07:25:01;;;;;;;44.78;8.65;;;17.90;29.50;;;;;;5032495;28;20523;-63
2022/02/15 07:27:31;;;;;;;36.40;8.55;;;17.80;29.40;;;;;;5030243;28;20073;-61
2022/02/15 07:29:58;;;;;;;44.10;8.20;;;17.80;29.20;;;;;;5030198;28;20093;-62
2022/02/15 07:32:24;;;;;;;48.88;10.15;;;17.70;29.10;;;;;;5031544;28;20431;-62
2022/02/15 07:34:52;;;;;;;46.97;11.02;;;17.60;29.70;;;;;;5031447;28;20165;-60
2022/02/15 07:37:20;;;;;;;43.15;9.55;;;17.50;29.80;;;;;;5030058;28;20078;-62
2022/02/15 07:39:46;;;;;;;54.95;10.48;;;17.50;29.90;;;;;;5029016;28;20085;-61
2022/02/15 07:42:13;;;;;;;43.70;9.60;;;17.40;30.40;;;;;;5030001;28;20455;-62
2022/02/15 07:44:40;;;;;;;42.80;10.45;;;17.30;30.20;;;;;;5029144;28;20096;-63
2022/02/15 07:47:07;;;;;;;37.92;9.77;;;17.40;30.40;;;;;;5029225;28;20727;-61
2022/02/15 07:49:33;;;;;;;51.05;10.65;;;17.30;30.20;;;;;;5030262;28;20077;-58
2022/02/15 07:52:00;;;;;;;47.50;10.38;;;17.20;30.10;;;;;;5030977;28;20153;-63
2022/02/15 07:54:27;;;;;;;47.63;10.95;;;17.20;30.50;;;;;;5029770;28;20085;-62
2022/02/15 07:56:53;;;;;;;53.53;11.35;;;17.10;30.00;;;;;;5029308;28;20070;-61
2022/02/15 07:59:20;;;;;;;;;;;17.20;30.00;;;;;;5029528;28;20558;-62
2022/02/15 08:01:46;;;;;;;43.65;10.48;;;17.20;29.90;;;;;;5028602;28;19965;-62
2022/02/15 08:04:13;;;;;;;;;;;17.10;29.80;;;;;;5030520;28;20144;-60
2022/02/15 08:06:43;;;;;;;47.22;11.43;;;17.10;29.80;;;;;;5028732;28;20007;-62
2022/02/15 08:09:14;;;;;;;42.55;10.07;;;17.10;30.00;;;;;;5028841;28;20284;-61
2022/02/15 08:11:44;;;;;;;37.33;8.95;;;17.10;30.00;;;;;;5029033;28;20070;-61
2022/02/15 08:14:11;;;;;;;35.70;9.25;;;17.10;29.70;;;;;;5028140;28;20082;-62
2022/02/15 08:16:37;;;;;;;39.47;7.75;;;17.20;29.10;;;;;;5028341;28;20082;-61
2022/02/15 08:19:03;;;;;;;;;;;17.30;28.90;;;;;;5029668;28;20545;-61
2022/02/15 08:21:30;;;;;;;24.00;5.35;;;17.40;28.70;;;;;;5031181;28;20048;-62
2022/02/15 08:23:56;;;;;;;;;;;17.50;28.40;;;;;;5029467;28;20091;-60
2022/02/15 08:26:24;;;;;;;17.27;4.07;;;17.70;27.70;;;;;;5013912;28;20008;-61
2022/02/15 08:28:50;;;;;;;19.35;3.88;;;18.00;27.00;;;;;;5029225;28;20102;-62
2022/02/15 08:31:16;;;;;;;;;;;18.30;26.50;;;;;;5028702;28;20076;-62
2022/02/15 08:33:43;;;;;;;17.80;3.25;;;18.60;26.00;;;;;;5029155;28;19968;-61
2022/02/15 08:36:10;;;;;;;15.45;3.35;;;18.70;25.70;;;;;;5014080;28;20135;-61
2022/02/15 08:38:36;;;;;;;10.80;2.45;;;19.00;25.20;;;;;;5027504;28;20431;-61
2022/02/15 08:41:05;;;;;;;7.80;2.80;;;19.10;25.00;;;;;;5030290;28;20086;-63
2022/02/15 08:43:32;;;;;;;25.63;3.10;;;19.30;24.70;;;;;;5028668;28;20089;-62
2022/02/15 08:45:59;;;;;;;;;;;19.30;24.60;;;;;;5028915;28;20090;-62
2022/02/15 08:48:26;;;;;;;21.90;3.78;;;19.40;24.50;;;;;;5027634;28;19957;-62
2022/02/15 08:50:52;;;;;;;16.45;3.10;;;19.40;24.20;;;;;;5029504;28;20074;-60
2022/02/15 08:53:18;;;;;;;13.60;2.20;;;19.40;24.10;;;;;;5028718;28;20114;-62
2022/02/15 08:55:44;;;;;;;;;;;19.40;24.00;;;;;;5030861;28;20097;-61
2022/02/15 08:58:11;;;;;;;25.95;2.20;;;19.50;23.70;;;;;;5029535;28;20011;-61
2022/02/15 09:00:38;;;;;;;11.25;2.05;;;19.70;23.40;;;;;;5028302;28;20074;-61
2022/02/15 09:03:05;;;;;;;11.55;2.33;;;19.80;23.20;;;;;;5028565;28;20461;-61
2022/02/15 09:05:31;;;;;;;;;;;19.80;23.10;;;;;;5028661;28;20074;-60
2022/02/15 09:07:58;;;;;;;7.72;1.80;;;20.00;22.80;;;;;;5028611;28;20028;-64
2022/02/15 09:10:24;;;;;;;11.35;1.92;;;20.00;22.50;;;;;;5029395;28;20437;-62
2022/02/15 09:12:50;;;;;;;13.32;2.00;;;20.10;22.50;;;;;;5028352;28;20168;-61
2022/02/15 09:15:16;;;;;;;;;;;20.10;22.50;;;;;;5025911;28;20078;-60
2022/02/15 09:17:43;;;;;;;4.15;1.70;;;20.10;22.40;;;;;;5026972;28;19968;-60
2022/02/15 09:20:11;;;;;;;6.35;1.80;;;20.10;22.20;;;;;;5028525;28;20116;-61
2022/02/15 09:22:38;;;;;;;10.18;1.63;;;20.20;22.20;;;;;;5026232;28;20444;-61
2022/02/15 09:25:06;;;;;;;11.52;1.80;;;20.20;22.10;;;;;;5028752;28;20097;-61
2022/02/15 09:27:32;;;;;;;10.80;1.88;;;20.20;22.10;;;;;;5027991;28;20101;-62
2022/02/15 09:29:59;;;;;;;8.30;2.17;;;20.20;22.20;;;;;;5027204;28;20089;-62
2022/02/15 09:32:25;;;;;;;4.10;2.08;;;20.20;22.20;;;;;;5028090;28;20077;-61
2022/02/15 09:34:51;;;;;;;6.28;2.10;;;20.10;22.30;;;;;;5026301;28;20207;-60
2022/02/15 09:37:18;;;;;;;;;;;20.10;22.30;;;;;;5012056;28;20069;-61
2022/02/15 09:39:44;;;;;;;10.10;2.13;;;20.00;22.30;;;;;;5027351;28;19974;-60
2022/02/15 09:42:10;;;;;;;4.50;1.83;;;20.00;22.40;;;;;;5027686;28;20078;-61
2022/02/15 09:44:37;;;;;;;3.95;1.67;;;20.00;22.90;;;;;;5028277;28;20128;-60
2022/02/15 09:47:05;;;;;;;9.50;1.98;;;20.00;22.40;;;;;;5027770;28;20074;-61
2022/02/15 09:49:50;;;;;;;4.70;1.50;;;20.00;22.30;;;;;;5027621;28;20129;-60
2022/02/15 09:52:18;;;;;;;5.82;1.27;;;20.00;22.30;;;;;;5027646;28;20066;-61
2022/02/15 09:54:46;;;;;;;12.32;1.40;;;20.10;22.20;;;;;;5028473;28;20523;-61
2022/02/15 09:57:13;;;;;;;2.90;1.38;;;20.20;22.10;;;;;;5029128;28;20086;-62
2022/02/15 09:59:40;;;;;;;9.18;1.92;;;20.10;22.10;;;;;;5027056;28;20494;-61
2022/02/15 10:02:12;;;;;;;7.63;1.60;;;20.00;22.00;;;;;;5027581;28;20093;-59
2022/02/15 10:04:38;;;;;;;7.82;1.30;;;20.00;22.10;;;;;;5025001;28;20205;-60
2022/02/15 10:07:07;;;;;;;8.40;1.50;;;20.00;22.10;;;;;;5026011;28;20175;-61
2022/02/15 10:09:34;;;;;;;6.43;2.45;;;20.00;22.10;;;;;;5028482;28;20431;-63
2022/02/15 10:12:11;;;;;;;4.00;1.95;;;19.90;22.10;;;;;;5026915;28;20070;-61
2022/02/15 10:14:44;;;;;;;8.70;1.70;;;19.90;22.20;;;;;;5007794;28;20100;-61
2022/02/15 10:17:17;;;;;;;8.98;2.08;;;19.80;22.40;;;;;;5027538;28;20173;-61
2022/02/15 10:19:47;;;;;;;5.80;1.20;;;19.70;22.60;;;;;;5026496;28;20120;-62
2022/02/15 10:22:16;;;;;;;9.32;1.48;;;19.60;23.00;;;;;;5028523;28;20446;-62
2022/02/15 10:24:49;;;;;;;7.55;1.40;;;19.50;23.20;;;;;;5027395;28;20094;-60
2022/02/15 10:27:16;;;;;;;14.55;2.63;;;19.30;23.50;;;;;;5028662;28;20093;-60
2022/02/15 10:29:46;;;;;;;8.85;2.47;;;19.20;23.50;;;;;;5027212;28;20078;-60
2022/02/15 10:32:17;;;;;;;11.90;2.67;;;19.10;23.80;;;;;;5010485;28;20093;-60
2022/02/15 10:34:56;;;;;;;18.70;3.13;;;19.00;24.10;;;;;;5026297;28;20123;-60
2022/02/15 10:37:33;;;;;;;29.88;7.30;;;18.80;24.30;;;;;;5026573;28;20094;-61
2022/02/15 10:40:01;;;;;;;42.35;8.48;;;18.60;24.90;;;;;;5027135;28;20086;-61
2022/02/15 10:42:31;;;;;;;55.13;11.82;;;18.30;26.00;;;;;;5013634;28;20147;-61
2022/02/15 10:45:09;;;;;;;49.92;13.45;;;18.10;26.20;;;;;;5028385;28;20531;-61
2022/02/15 10:47:38;;;;;;;55.75;14.07;;;17.90;27.10;;;;;;5030722;28;20082;-61
2022/02/15 10:50:12;;;;;;;52.58;13.52;;;17.60;28.00;;;;;;5015196;28;20074;-62
2022/02/15 10:52:39;;;;;;;54.45;14.32;;;17.50;28.90;;;;;;5031370;28;20074;-60
2022/02/15 10:55:07;;;;;;;56.13;13.20;;;17.30;29.40;;;;;;5031238;28;20125;-61
2022/02/15 10:57:35;;;;;;;47.70;12.63;;;17.10;30.00;;;;;;5032390;28;20523;-61
2022/02/15 11:00:07;;;;;;;39.20;12.88;;;16.90;31.00;;;;;;5030909;28;20094;-59
2022/02/15 11:02:36;;;;;;;40.17;11.23;;;16.70;32.60;;;;;;5032005;28;20067;-60
2022/02/15 11:05:06;;;;;;;34.50;10.15;;;16.50;34.20;;;;;;5030618;28;20117;-61
2022/02/15 11:07:36;;;;;;;35.60;9.82;;;16.50;35.40;;;;;;5030846;28;20443;-60
2022/02/15 11:10:22;;;;;;;40.97;9.63;;;16.30;36.40;;;;;;5044420;28;20149;-59
2022/02/15 11:13:01;;;;;;;43.17;9.70;;;16.10;37.10;;;;;;5013591;28;20177;-59
2022/02/15 11:15:28;;;;;;;37.67;9.57;;;15.80;38.60;;;;;;5030465;28;20086;-60
2022/02/15 11:18:04;;;;;;;32.92;8.88;;;15.50;39.40;;;;;;5013980;28;20526;-59
2022/02/15 11:20:50;;;;;;;32.00;10.05;;;15.50;39.80;;;;;;5030366;28;20539;-59
2022/02/15 11:23:19;;;;;;;30.30;10.00;;;15.50;40.00;;;;;;5029813;28;20113;-60
2022/02/15 11:25:45;;;;;;;42.92;9.88;;;15.30;40.70;;;;;;5046411;28;20085;-60
2022/02/15 11:28:16;;;;;;;41.67;9.23;;;15.10;41.40;;;;;;5030343;28;20156;-60
2022/02/15 11:30:52;;;;;;;39.60;10.10;;;15.10;42.00;;;;;;5012255;28;20124;-62
2022/02/15 11:33:25;;;;;;;37.80;9.13;;;14.90;42.40;;;;;;5029640;28;20202;-64
2022/02/15 11:36:13;;;;;;;44.25;9.95;;;14.50;43.00;;;;;;5030199;28;20101;-56
2022/02/15 11:38:51;;;;;;;46.10;11.32;;;14.40;43.80;;;;;;5030148;28;20086;-61
2022/02/15 11:41:18;;;;;;;59.17;21.65;;;14.30;44.40;;;;;;5030057;28;20086;-60
2022/02/15 11:43:55;;;;;;;72.68;36.80;;;14.30;44.80;;;;;;5030044;28;20514;-59
2022/02/15 11:46:46;;;;;;;60.15;25.08;;;14.20;45.10;;;;;;5029560;28;20086;-61
2022/02/15 11:49:15;;;;;;;41.97;17.23;;;14.20;45.70;;;;;;5029256;28;20156;-61
2022/02/15 11:51:43;;;;;;;42.08;13.98;;;14.20;45.80;;;;;;5029009;28;20132;-61
2022/02/15 11:54:21;;;;;;;34.17;11.43;;;14.20;46.10;;;;;;5029595;28;20070;-61
2022/02/15 11:56:50;;;;;;;30.25;10.48;;;14.00;47.30;;;;;;5030516;28;20081;-62
2022/02/15 11:59:26;;;;;;;36.17;9.68;;;14.00;47.10;;;;;;5029217;28;20165;-60
2022/02/15 12:01:56;;;;;;;31.77;8.97;;;14.10;47.70;;;;;;5029942;28;20081;-61
2022/02/15 12:04:23;;;;;;;22.35;8.32;;;14.10;48.10;;;;;;5029060;28;20090;-61
2022/02/15 12:06:51;;;;;;;29.17;8.93;;;14.00;48.20;;;;;;5029159;28;20078;-61
2022/02/15 12:09:24;;;;;;;29.85;8.73;;;14.00;48.80;;;;;;5029693;28;20076;-60
2022/02/15 12:11:51;;;;;;;28.80;8.25;;;14.00;49.20;;;;;;5030849;28;20149;-61
2022/02/15 12:14:17;;;;;;;;;;;14.00;49.40;;;;;;5028009;28;20086;-61
2022/02/15 12:16:49;;;;;;;35.75;10.38;;;14.00;49.30;;;;;;5030095;28;19962;-63
2022/02/15 12:19:23;;;;;;;26.67;9.30;;;13.90;49.70;;;;;;5000684;28;20106;-60
2022/02/15 12:21:49;;;;;;;36.38;9.95;;;13.80;50.30;;;;;;5028109;28;20077;-61
2022/02/15 12:24:16;;;;;;;35.30;12.18;;;13.70;50.90;;;;;;5028809;28;20539;-61
2022/02/15 12:26:43;;;;;;;49.67;17.92;;;13.50;51.20;;;;;;5030229;28;20490;-62
2022/02/15 12:29:10;;;;;;;73.75;28.73;;;13.40;51.60;;;;;;5028638;28;20066;-62
2022/02/15 12:31:37;;;;;;;81.88;33.65;;;13.30;52.10;;;;;;5012706;28;20077;-61
2022/02/15 12:34:08;;;;;;;79.20;35.17;;;13.40;52.30;;;;;;5043065;28;20081;-61
2022/02/15 12:36:35;;;;;;;80.38;35.97;;;13.40;52.40;;;;;;5028394;28;20086;-62
2022/02/15 12:39:04;;;;;;;;;;;13.30;52.50;;;;;;5012798;28;20581;-62
2022/02/15 12:41:38;;;;;;;63.60;25.95;;;13.30;52.80;;;;;;5012159;28;19958;-61
2022/02/15 12:44:05;;;;;;;60.42;18.98;;;13.20;53.10;;;;;;5027636;28;20082;-61
2022/02/15 12:46:32;;;;;;;53.95;17.02;;;13.20;53.40;;;;;;5029931;28;20128;-61
2022/02/15 12:49:01;;;;;;;48.60;16.05;;;13.20;53.70;;;;;;5027536;28;20070;-61